sensor_id;sensor_type;location;lat;lon;timestamp;P1;durP1;ratioP1;P2;durP2;ratioP2
76477;SDS011;65309;49.790;18.972;2022-12-20T06:43:00;3.55;;;2.63;;
76477;SDS011;65309;49.790;18.972;2022-12-20T06:48:02;4.25;;;2.58;;
76477;SDS011;65309;49.790;18.972;2022-12-20T06:53:05;6.10;;;4.10;;
76477;SDS011;65309;49.790;18.972;2022-12-20T06:58:08;6.70;;;2.47;;
76477;SDS011;65309;49.790;18.972;2022-12-20T07:03:10;5.88;;;3.60;;
76477;SDS011;65309;49.790;18.972;2022-12-20T07:08:13;3.40;;;2.30;;
76477;SDS011;65309;49.790;18.972;2022-12-20T07:13:16;6.05;;;3.63;;
76477;SDS011;65309;49.790;18.972;2022-12-20T07:18:18;3.38;;;1.85;;
76477;SDS011;65309;49.790;18.972;2022-12-20T07:23:20;6.85;;;3.40;;
76477;SDS011;65309;49.790;18.972;2022-12-20T07:28:23;6.10;;;2.97;;
76477;SDS011;65309;49.790;18.972;2022-12-20T07:33:26;5.65;;;2.35;;
76477;SDS011;65309;49.790;18.972;2022-12-20T07:38:29;3.90;;;2.50;;
76477;SDS011;65309;49.790;18.972;2022-12-20T07:43:33;3.78;;;1.83;;
76477;SDS011;65309;49.790;18.972;2022-12-20T07:48:35;5.78;;;2.47;;
76477;SDS011;65309;49.790;18.972;2022-12-20T07:53:39;5.75;;;2.78;;
76477;SDS011;65309;49.790;18.972;2022-12-20T07:58:46;5.30;;;2.88;;
76477;SDS011;65309;49.790;18.972;2022-12-20T08:03:51;3.42;;;1.83;;
76477;SDS011;65309;49.790;18.972;2022-12-20T08:08:57;3.42;;;2.08;;
76477;SDS011;65309;49.790;18.972;2022-12-20T08:14:06;6.72;;;2.78;;
76477;SDS011;65309;49.790;18.972;2022-12-20T08:19:08;3.47;;;2.03;;
76477;SDS011;65309;49.790;18.972;2022-12-20T08:24:10;6.15;;;2.55;;
76477;SDS011;65309;49.790;18.972;2022-12-20T08:29:14;5.40;;;2.00;;
76477;SDS011;65309;49.790;18.972;2022-12-20T08:34:17;5.72;;;2.75;;
76477;SDS011;65309;49.790;18.972;2022-12-20T08:39:19;5.53;;;2.47;;
76477;SDS011;65309;49.790;18.972;2022-12-20T08:44:22;4.75;;;2.97;;
76477;SDS011;65309;49.790;18.972;2022-12-20T08:49:24;4.82;;;2.47;;
76477;SDS011;65309;49.790;18.972;2022-12-20T08:54:26;4.85;;;2.55;;
76477;SDS011;65309;49.790;18.972;2022-12-20T08:59:30;3.70;;;1.90;;
76477;SDS011;65309;49.790;18.972;2022-12-20T09:04:32;5.10;;;2.75;;
76477;SDS011;65309;49.790;18.972;2022-12-20T09:09:34;4.05;;;2.50;;
76477;SDS011;65309;49.790;18.972;2022-12-20T09:14:38;5.15;;;3.05;;
76477;SDS011;65309;49.790;18.972;2022-12-20T09:19:41;6.40;;;2.83;;
76477;SDS011;65309;49.790;18.972;2022-12-20T09:24:44;4.45;;;3.28;;
76477;SDS011;65309;49.790;18.972;2022-12-20T09:29:47;5.30;;;3.00;;
76477;SDS011;65309;49.790;18.972;2022-12-20T09:34:49;6.32;;;3.05;;
76477;SDS011;65309;49.790;18.972;2022-12-20T09:39:51;5.65;;;3.95;;
76477;SDS011;65309;49.790;18.972;2022-12-20T09:44:56;5.05;;;2.95;;
76477;SDS011;65309;49.790;18.972;2022-12-20T09:50:05;7.07;;;3.70;;
76477;SDS011;65309;49.790;18.972;2022-12-20T10:00:19;3.60;;;2.25;;
76477;SDS011;65309;49.790;18.972;2022-12-20T10:05:24;3.20;;;2.40;;
76477;SDS011;65309;49.790;18.972;2022-12-20T10:10:46;4.53;;;2.45;;
76477;SDS011;65309;49.790;18.972;2022-12-20T10:15:56;8.55;;;6.10;;
76477;SDS011;65309;49.790;18.972;2022-12-20T10:21:04;4.72;;;2.92;;
76477;SDS011;65309;49.790;18.972;2022-12-20T10:26:11;4.95;;;2.90;;
76477;SDS011;65309;49.790;18.972;2022-12-20T10:31:15;5.28;;;2.92;;
76477;SDS011;65309;49.790;18.972;2022-12-20T10:36:23;5.00;;;2.88;;
76477;SDS011;65309;49.790;18.972;2022-12-20T10:41:30;5.60;;;2.95;;
76477;SDS011;65309;49.790;18.972;2022-12-20T10:46:36;6.90;;;3.95;;
76477;SDS011;65309;49.790;18.972;2022-12-20T10:51:40;6.82;;;3.45;;
76477;SDS011;65309;49.790;18.972;2022-12-20T10:56:56;5.75;;;3.30;;
76477;SDS011;65309;49.790;18.972;2022-12-20T11:02:01;5.03;;;3.03;;
76477;SDS011;65309;49.790;18.972;2022-12-20T11:07:22;8.25;;;3.45;;
76477;SDS011;65309;49.790;18.972;2022-12-20T11:12:26;3.30;;;2.30;;
76477;SDS011;65309;49.790;18.972;2022-12-20T11:17:31;7.10;;;3.03;;
76477;SDS011;65309;49.790;18.972;2022-12-20T11:22:41;4.65;;;3.08;;
76477;SDS011;65309;49.790;18.972;2022-12-20T11:27:52;5.82;;;3.42;;
76477;SDS011;65309;49.790;18.972;2022-12-20T11:38:39;8.10;;;3.97;;
76477;SDS011;65309;49.790;18.972;2022-12-20T11:43:48;4.32;;;2.72;;
76477;SDS011;65309;49.790;18.972;2022-12-20T11:49:26;5.22;;;2.35;;
76477;SDS011;65309;49.790;18.972;2022-12-20T11:54:40;4.43;;;2.70;;
76477;SDS011;65309;49.790;18.972;2022-12-20T11:59:45;7.72;;;3.45;;
76477;SDS011;65309;49.790;18.972;2022-12-20T12:04:54;5.85;;;2.33;;
76477;SDS011;65309;49.790;18.972;2022-12-20T12:10:02;5.68;;;3.33;;
76477;SDS011;65309;49.790;18.972;2022-12-20T12:15:11;6.93;;;3.60;;
76477;SDS011;65309;49.790;18.972;2022-12-20T12:20:32;5.53;;;2.42;;
76477;SDS011;65309;49.790;18.972;2022-12-20T12:25:41;5.28;;;3.22;;
76477;SDS011;65309;49.790;18.972;2022-12-20T12:30:43;4.05;;;2.28;;
76477;SDS011;65309;49.790;18.972;2022-12-20T12:46:59;6.32;;;4.25;;
76477;SDS011;65309;49.790;18.972;2022-12-20T12:52:21;5.65;;;3.40;;
76477;SDS011;65309;49.790;18.972;2022-12-20T12:57:49;6.82;;;3.85;;
76477;SDS011;65309;49.790;18.972;2022-12-20T13:02:56;5.57;;;2.75;;
76477;SDS011;65309;49.790;18.972;2022-12-20T13:08:00;4.80;;;3.10;;
76477;SDS011;65309;49.790;18.972;2022-12-20T13:13:11;4.80;;;3.15;;
76477;SDS011;65309;49.790;18.972;2022-12-20T13:18:26;5.80;;;2.65;;
76477;SDS011;65309;49.790;18.972;2022-12-20T13:23:30;6.57;;;3.75;;
76477;SDS011;65309;49.790;18.972;2022-12-20T13:28:44;6.32;;;3.20;;
76477;SDS011;65309;49.790;18.972;2022-12-20T13:33:47;6.28;;;3.80;;
76477;SDS011;65309;49.790;18.972;2022-12-20T13:38:52;6.03;;;3.50;;
76477;SDS011;65309;49.790;18.972;2022-12-20T13:44:00;6.78;;;3.63;;
76477;SDS011;65309;49.790;18.972;2022-12-20T13:49:21;8.48;;;3.20;;
76477;SDS011;65309;49.790;18.972;2022-12-20T13:54:27;5.47;;;2.92;;
76477;SDS011;65309;49.790;18.972;2022-12-20T13:59:29;9.52;;;4.28;;
76477;SDS011;65309;49.790;18.972;2022-12-20T14:09:44;6.25;;;3.90;;
76477;SDS011;65309;49.790;18.972;2022-12-20T14:14:48;10.88;;;4.82;;
76477;SDS011;65309;49.790;18.972;2022-12-20T14:20:04;6.35;;;4.47;;
76477;SDS011;65309;49.790;18.972;2022-12-20T14:25:15;7.78;;;3.80;;
76477;SDS011;65309;49.790;18.972;2022-12-20T14:30:26;6.93;;;4.10;;
76477;SDS011;65309;49.790;18.972;2022-12-20T14:35:31;7.18;;;3.22;;
76477;SDS011;65309;49.790;18.972;2022-12-20T14:40:40;4.55;;;3.17;;
76477;SDS011;65309;49.790;18.972;2022-12-20T14:45:43;5.65;;;3.50;;
76477;SDS011;65309;49.790;18.972;2022-12-20T14:50:50;5.60;;;3.50;;
76477;SDS011;65309;49.790;18.972;2022-12-20T14:55:55;5.65;;;3.83;;
76477;SDS011;65309;49.790;18.972;2022-12-20T15:00:58;6.47;;;3.38;;
76477;SDS011;65309;49.790;18.972;2022-12-20T15:06:02;11.43;;;5.55;;
76477;SDS011;65309;49.790;18.972;2022-12-20T15:11:11;13.23;;;7.60;;
76477;SDS011;65309;49.790;18.972;2022-12-20T15:16:24;38.80;;;17.15;;
76477;SDS011;65309;49.790;18.972;2022-12-20T15:26:31;36.63;;;19.10;;
76477;SDS011;65309;49.790;18.972;2022-12-20T15:31:33;41.72;;;20.30;;
76477;SDS011;65309;49.790;18.972;2022-12-20T15:36:37;39.85;;;21.30;;
76477;SDS011;65309;49.790;18.972;2022-12-20T15:41:40;45.78;;;24.48;;
76477;SDS011;65309;49.790;18.972;2022-12-20T15:46:45;43.03;;;18.98;;
76477;SDS011;65309;49.790;18.972;2022-12-20T15:51:48;47.03;;;24.27;;
76477;SDS011;65309;49.790;18.972;2022-12-20T16:01:55;65.80;;;29.95;;
76477;SDS011;65309;49.790;18.972;2022-12-20T16:06:58;56.90;;;30.02;;
76477;SDS011;65309;49.790;18.972;2022-12-20T16:12:01;43.95;;;21.20;;
76477;SDS011;65309;49.790;18.972;2022-12-20T16:17:04;45.20;;;22.17;;
76477;SDS011;65309;49.790;18.972;2022-12-20T16:22:08;59.75;;;29.80;;
76477;SDS011;65309;49.790;18.972;2022-12-20T16:27:17;48.28;;;24.50;;
76477;SDS011;65309;49.790;18.972;2022-12-20T16:32:20;57.75;;;30.90;;
76477;SDS011;65309;49.790;18.972;2022-12-20T16:37:22;48.45;;;22.67;;
76477;SDS011;65309;49.790;18.972;2022-12-20T16:42:26;52.83;;;25.45;;
76477;SDS011;65309;49.790;18.972;2022-12-20T16:47:28;32.88;;;17.30;;
76477;SDS011;65309;49.790;18.972;2022-12-20T16:52:30;29.60;;;18.83;;
76477;SDS011;65309;49.790;18.972;2022-12-20T16:57:33;55.70;;;27.63;;
76477;SDS011;65309;49.790;18.972;2022-12-20T17:02:35;22.40;;;13.43;;
76477;SDS011;65309;49.790;18.972;2022-12-20T17:07:38;42.55;;;24.85;;
76477;SDS011;65309;49.790;18.972;2022-12-20T17:12:43;36.63;;;21.85;;
76477;SDS011;65309;49.790;18.972;2022-12-20T17:17:46;55.33;;;28.65;;
76477;SDS011;65309;49.790;18.972;2022-12-20T17:22:49;41.92;;;24.95;;
76477;SDS011;65309;49.790;18.972;2022-12-20T17:28:12;46.47;;;26.52;;
76477;SDS011;65309;49.790;18.972;2022-12-20T17:33:14;52.28;;;27.73;;
76477;SDS011;65309;49.790;18.972;2022-12-20T17:38:17;47.75;;;24.17;;
76477;SDS011;65309;49.790;18.972;2022-12-20T17:43:20;28.25;;;13.55;;
76477;SDS011;65309;49.790;18.972;2022-12-20T17:48:22;75.65;;;38.15;;
76477;SDS011;65309;49.790;18.972;2022-12-20T17:53:33;59.20;;;29.73;;
76477;SDS011;65309;49.790;18.972;2022-12-20T17:58:36;20.35;;;13.25;;
76477;SDS011;65309;49.790;18.972;2022-12-20T18:03:38;52.78;;;28.58;;
76477;SDS011;65309;49.790;18.972;2022-12-20T18:09:00;59.28;;;29.15;;
76477;SDS011;65309;49.790;18.972;2022-12-20T18:14:04;42.03;;;22.27;;
76477;SDS011;65309;49.790;18.972;2022-12-20T18:19:06;35.95;;;20.08;;
76477;SDS011;65309;49.790;18.972;2022-12-20T18:24:09;52.55;;;29.45;;
76477;SDS011;65309;49.790;18.972;2022-12-20T18:29:12;39.17;;;23.38;;
76477;SDS011;65309;49.790;18.972;2022-12-20T18:34:15;66.03;;;33.25;;
76477;SDS011;65309;49.790;18.972;2022-12-20T18:39:17;40.28;;;24.42;;
76477;SDS011;65309;49.790;18.972;2022-12-20T18:44:21;36.28;;;19.63;;
76477;SDS011;65309;49.790;18.972;2022-12-20T18:49:23;29.35;;;18.42;;
76477;SDS011;65309;49.790;18.972;2022-12-20T18:54:25;22.08;;;14.05;;
76477;SDS011;65309;49.790;18.972;2022-12-20T18:59:29;26.13;;;13.65;;
76477;SDS011;65309;49.790;18.972;2022-12-20T19:04:31;37.03;;;19.38;;
76477;SDS011;65309;49.790;18.972;2022-12-20T19:09:33;27.67;;;14.60;;
76477;SDS011;65309;49.790;18.972;2022-12-20T19:14:37;58.42;;;37.75;;
76477;SDS011;65309;49.790;18.972;2022-12-20T19:19:39;49.53;;;26.00;;
76477;SDS011;65309;49.790;18.972;2022-12-20T19:24:41;59.88;;;26.77;;
76477;SDS011;65309;49.790;18.972;2022-12-20T19:29:44;59.53;;;28.42;;
76477;SDS011;65309;49.790;18.972;2022-12-20T19:34:47;53.28;;;25.60;;
76477;SDS011;65309;49.790;18.972;2022-12-20T19:39:49;33.88;;;17.98;;
76477;SDS011;65309;49.790;18.972;2022-12-20T19:44:53;17.35;;;10.50;;
76477;SDS011;65309;49.790;18.972;2022-12-20T19:49:55;37.60;;;19.67;;
76477;SDS011;65309;49.790;18.972;2022-12-20T19:54:57;21.63;;;9.85;;
76477;SDS011;65309;49.790;18.972;2022-12-20T20:00:00;6.72;;;3.67;;
76477;SDS011;65309;49.790;18.972;2022-12-20T20:05:02;20.60;;;11.57;;
76477;SDS011;65309;49.790;18.972;2022-12-20T20:10:15;13.90;;;6.38;;
76477;SDS011;65309;49.790;18.972;2022-12-20T20:15:18;55.45;;;29.20;;
76477;SDS011;65309;49.790;18.972;2022-12-20T20:20:20;43.05;;;22.23;;
76477;SDS011;65309;49.790;18.972;2022-12-20T20:25:23;52.58;;;28.63;;
76477;SDS011;65309;49.790;18.972;2022-12-20T20:30:26;62.03;;;31.67;;
76477;SDS011;65309;49.790;18.972;2022-12-20T20:35:28;48.50;;;26.92;;
76477;SDS011;65309;49.790;18.972;2022-12-20T20:40:30;43.17;;;23.80;;
76477;SDS011;65309;49.790;18.972;2022-12-20T20:45:34;37.20;;;19.67;;
76477;SDS011;65309;49.790;18.972;2022-12-20T20:50:36;53.92;;;29.17;;
76477;SDS011;65309;49.790;18.972;2022-12-20T20:55:38;33.83;;;21.52;;
76477;SDS011;65309;49.790;18.972;2022-12-20T21:00:42;70.72;;;36.53;;
76477;SDS011;65309;49.790;18.972;2022-12-20T21:05:44;33.53;;;18.13;;
76477;SDS011;65309;49.790;18.972;2022-12-20T21:11:06;63.05;;;32.55;;
76477;SDS011;65309;49.790;18.972;2022-12-20T21:16:11;68.68;;;27.63;;
76477;SDS011;65309;49.790;18.972;2022-12-20T21:21:16;35.85;;;17.77;;
76477;SDS011;65309;49.790;18.972;2022-12-20T21:26:20;47.10;;;22.58;;
76477;SDS011;65309;49.790;18.972;2022-12-20T21:31:24;42.53;;;19.92;;
76477;SDS011;65309;49.790;18.972;2022-12-20T21:36:26;23.75;;;14.77;;
76477;SDS011;65309;49.790;18.972;2022-12-20T21:41:28;16.98;;;10.52;;
76477;SDS011;65309;49.790;18.972;2022-12-20T21:46:32;40.05;;;17.95;;
76477;SDS011;65309;49.790;18.972;2022-12-20T21:51:34;37.70;;;20.20;;
76477;SDS011;65309;49.790;18.972;2022-12-20T21:56:36;38.55;;;20.00;;
76477;SDS011;65309;49.790;18.972;2022-12-20T22:01:40;25.55;;;16.50;;
76477;SDS011;65309;49.790;18.972;2022-12-20T22:06:43;26.83;;;16.30;;
76477;SDS011;65309;49.790;18.972;2022-12-20T22:11:45;50.13;;;24.65;;
76477;SDS011;65309;49.790;18.972;2022-12-20T22:16:52;50.95;;;20.60;;
76477;SDS011;65309;49.790;18.972;2022-12-20T22:21:55;38.22;;;17.77;;
76477;SDS011;65309;49.790;18.972;2022-12-20T22:26:59;38.90;;;16.40;;
76477;SDS011;65309;49.790;18.972;2022-12-20T22:32:08;31.55;;;15.88;;
76477;SDS011;65309;49.790;18.972;2022-12-20T22:42:12;17.40;;;11.00;;
76477;SDS011;65309;49.790;18.972;2022-12-20T22:47:17;9.00;;;5.78;;
76477;SDS011;65309;49.790;18.972;2022-12-20T22:52:19;16.20;;;8.13;;
76477;SDS011;65309;49.790;18.972;2022-12-20T22:57:22;3.88;;;2.63;;
76477;SDS011;65309;49.790;18.972;2022-12-20T23:02:25;9.23;;;3.85;;
76477;SDS011;65309;49.790;18.972;2022-12-20T23:07:28;48.63;;;21.10;;
76477;SDS011;65309;49.790;18.972;2022-12-20T23:12:30;21.90;;;16.48;;
76477;SDS011;65309;49.790;18.972;2022-12-20T23:17:52;41.42;;;18.35;;
76477;SDS011;65309;49.790;18.972;2022-12-20T23:22:54;46.25;;;23.95;;
76477;SDS011;65309;49.790;18.972;2022-12-20T23:27:56;49.88;;;25.48;;
76477;SDS011;65309;49.790;18.972;2022-12-20T23:33:00;48.38;;;23.00;;
76477;SDS011;65309;49.790;18.972;2022-12-20T23:38:02;44.97;;;20.98;;
76477;SDS011;65309;49.790;18.972;2022-12-20T23:43:04;43.97;;;22.20;;
76477;SDS011;65309;49.790;18.972;2022-12-20T23:48:07;46.95;;;22.83;;
76477;SDS011;65309;49.790;18.972;2022-12-20T23:53:09;48.75;;;23.92;;
76477;SDS011;65309;49.790;18.972;2022-12-20T23:58:11;40.58;;;19.30;;
